Time;durP1;ratioP1;P1;durP2;ratioP2;P2;SDS_P1;SDS_P2;PMS_P1;PMS_P2;Temp;Humidity;BMP_temperature;BMP_pressure;BME280_temperature;BME280_humidity;BME280_pressure;Samples;Min_cycle;Max_cycle;Signal;HPM_P1;HPM_P2
2021/12/24 00:00:26;;;;;;;0.80;0.80;;;;;;;;;;4466606;28;39884;-66
2021/12/24 00:02:38;;;;;;;0.60;0.60;;;;;;;;;;4468301;28;20035;-66
2021/12/24 00:04:48;;;;;;;1.23;0.70;;;;;;;;;;4467641;28;20121;-66
2021/12/24 00:06:59;;;;;;;1.03;0.83;;;;;;;;;;4482947;28;20038;-65
2021/12/24 00:09:09;;;;;;;1.00;0.60;;;;;;;;;;4467629;28;20043;-65
2021/12/24 00:11:19;;;;;;;0.70;0.70;;;;;;;;;;4450115;28;20074;-65
2021/12/24 00:13:35;;;;;;;0.60;0.60;;;;;;;;;;4467204;28;20098;-65
2021/12/24 00:15:53;;;;;;;0.70;0.70;;;;;;;;;;4450117;28;20043;-65
2021/12/24 00:18:13;;;;;;;0.63;0.63;;;;;;;;;;4468104;28;20034;-65
2021/12/24 00:21:23;;;;;;;0.47;0.47;;;;;;;;;;4481549;28;20089;-66
2021/12/24 00:35:22;;;;;;;0.80;0.80;;;;;;;;;;4471300;28;20047;-66
2021/12/24 00:37:32;;;;;;;1.02;0.80;;;;;;;;;;4471188;28;20575;-66
2021/12/24 00:39:52;;;;;;;0.70;0.70;;;;;;;;;;4471115;28;20086;-66
2021/12/24 00:42:03;;;;;;;0.77;0.77;;;;;;;;;;4484397;28;20246;-66
2021/12/24 00:44:14;;;;;;;0.70;0.70;;;;;;;;;;4471103;28;20035;-65
2021/12/24 00:46:24;;;;;;;0.90;0.70;;;;;;;;;;4453404;28;20035;-65
2021/12/24 00:48:35;;;;;;;0.80;0.80;;;;;;;;;;4485518;28;20483;-64
2021/12/24 00:55:02;;;;;;;0.80;0.70;;;;;;;;;;4468809;28;20043;-64
2021/12/24 00:55:34;;;;;;;0.80;0.80;;;;;;;;;;4470734;28;20042;-64
2021/12/24 00:57:57;;;;;;;0.60;0.60;;;;;;;;;;4452220;28;20475;-64
2021/12/24 01:00:19;;;;;;;0.80;0.80;;;;;;;;;;4484905;28;20219;-64
2021/12/24 01:02:30;;;;;;;0.70;0.70;;;;;;;;;;4469971;28;20181;-64
2021/12/24 01:04:41;;;;;;;0.77;0.67;;;;;;;;;;4452793;28;20059;-66
2021/12/24 01:06:51;;;;;;;0.67;0.67;;;;;;;;;;4469765;28;20042;-67
2021/12/24 01:09:02;;;;;;;1.27;0.90;;;;;;;;;;4470552;28;20031;-67
2021/12/24 01:11:13;;;;;;;0.85;0.85;;;;;;;;;;4470250;28;20046;-65
2021/12/24 01:13:25;;;;;;;0.90;0.80;;;;;;;;;;4484877;28;20074;-66
2021/12/24 01:15:51;;;;;;;1.00;0.80;;;;;;;;;;4469947;28;20578;-65
2021/12/24 01:37:48;;;;;;;1.25;1.10;;;;;;;;;;4484833;28;20133;-67
2021/12/24 01:44:48;;;;;;;2.55;1.88;;;;;;;;;;4432041;28;20808;-67
2021/12/24 01:47:01;;;;;;;2.10;1.40;;;;;;;;;;4433752;28;20155;-67
2021/12/24 01:49:11;;;;;;;1.92;1.70;;;;;;;;;;4419961;28;20048;-67
2021/12/24 01:51:22;;;;;;;2.47;1.90;;;;;;;;;;4433082;28;20511;-66
2021/12/24 01:53:37;;;;;;;2.83;1.83;;;;;;;;;;4433777;28;20586;-67
2021/12/24 01:55:50;;;;;;;2.45;1.92;;;;;;;;;;4419219;28;20098;-67
2021/12/24 01:58:01;;;;;;;2.33;1.83;;;;;;;;;;4418067;28;20177;-66
2021/12/24 02:00:21;;;;;;;2.30;1.70;;;;;;;;;;4431889;28;20123;-70
2021/12/24 02:02:32;;;;;;;1.95;1.75;;;;;;;;;;4431965;28;20079;-70
2021/12/24 02:04:42;;;;;;;2.03;1.73;;;;;;;;;;4418194;28;20107;-71
2021/12/24 02:06:53;;;;;;;2.27;1.83;;;;;;;;;;4416860;28;20226;-70
2021/12/24 02:09:03;;;;;;;2.10;1.70;;;;;;;;;;4432617;28;20051;-71
2021/12/24 02:11:14;;;;;;;2.70;2.00;;;;;;;;;;4417321;28;20048;-71
2021/12/24 02:13:24;;;;;;;1.87;1.67;;;;;;;;;;4434033;28;20114;-71
2021/12/24 02:18:17;;;;;;;2.45;1.80;;;;;;;;;;4485005;28;20197;-70
2021/12/24 02:28:21;;;;;;;2.25;1.77;;;;;;;;;;4452134;28;20041;-71
2021/12/24 02:30:32;;;;;;;2.17;1.75;;;;;;;;;;4472325;28;20153;-70
2021/12/24 02:32:42;;;;;;;3.17;1.67;;;;;;;;;;4435708;28;20122;-71
2021/12/24 02:34:53;;;;;;;1.80;1.40;;;;;;;;;;4469419;28;20047;-71
2021/12/24 02:37:03;;;;;;;2.57;1.60;;;;;;;;;;4469651;28;20278;-70
2021/12/24 02:39:14;;;;;;;2.50;1.77;;;;;;;;;;4468714;28;20042;-70
2021/12/24 02:41:24;;;;;;;1.93;1.50;;;;;;;;;;4483690;28;20049;-69
2021/12/24 02:43:35;;;;;;;2.33;1.70;;;;;;;;;;4450628;28;20122;-68
2021/12/24 02:45:48;;;;;;;2.03;1.50;;;;;;;;;;4468846;28;20043;-67
2021/12/24 02:54:57;;;;;;;1.35;1.20;;;;;;;;;;4451749;28;20055;-68
2021/12/24 02:57:10;;;;;;;2.10;1.60;;;;;;;;;;4468403;28;20031;-67
2021/12/24 02:59:28;;;;;;;1.45;1.30;;;;;;;;;;4467116;28;20067;-68
2021/12/24 03:01:42;;;;;;;1.20;1.00;;;;;;;;;;4438995;28;20120;-68
2021/12/24 03:03:52;;;;;;;1.85;1.35;;;;;;;;;;4483078;28;20040;-68
2021/12/24 03:06:04;;;;;;;1.50;1.40;;;;;;;;;;4451472;28;20043;-68
2021/12/24 03:08:14;;;;;;;1.35;1.23;;;;;;;;;;4467368;28;20039;-68
2021/12/24 03:10:25;;;;;;;1.90;1.33;;;;;;;;;;4467563;28;20455;-69
2021/12/24 03:12:35;;;;;;;2.27;1.40;;;;;;;;;;4450337;28;20043;-69
2021/12/24 03:14:46;;;;;;;1.40;1.30;;;;;;;;;;4484032;28;20066;-69
2021/12/24 03:16:59;;;;;;;1.77;1.40;;;;;;;;;;4482774;28;20441;-68
2021/12/24 03:19:12;;;;;;;1.75;1.35;;;;;;;;;;4482605;28;20034;-68
2021/12/24 03:21:36;;;;;;;1.60;1.45;;;;;;;;;;4483341;28;20600;-69
2021/12/24 03:26:17;;;;;;;1.48;1.27;;;;;;;;;;4427350;28;20122;-66
2021/12/24 03:28:27;;;;;;;1.60;1.27;;;;;;;;;;4468425;28;20039;-66
2021/12/24 03:30:38;;;;;;;1.77;1.33;;;;;;;;;;4481992;28;20468;-66
2021/12/24 03:32:49;;;;;;;1.60;1.30;;;;;;;;;;4482368;28;20038;-66
2021/12/24 03:34:59;;;;;;;1.60;1.50;;;;;;;;;;4450828;28;20039;-66
2021/12/24 03:37:10;;;;;;;2.10;1.37;;;;;;;;;;4450434;28;20086;-66
2021/12/24 03:39:21;;;;;;;1.80;1.40;;;;;;;;;;4450141;28;20724;-65
2021/12/24 03:41:32;;;;;;;2.00;1.50;;;;;;;;;;4434249;28;20040;-65
2021/12/24 03:43:43;;;;;;;2.15;1.75;;;;;;;;;;4483074;28;20521;-66
2021/12/24 03:48:15;;;;;;;2.47;1.70;;;;;;;;;;4483402;28;20034;-65
2021/12/24 03:50:39;;;;;;;1.80;1.58;;;;;;;;;;4468408;28;20496;-65
2021/12/24 03:54:55;;;;;;;2.58;1.80;;;;;;;;;;4436242;28;20047;-66
2021/12/24 03:55:35;;;;;;;2.13;1.92;;;;;;;;;;4466829;28;20034;-65
2021/12/24 03:57:46;;;;;;;2.50;1.80;;;;;;;;;;4466730;28;20027;-66
2021/12/24 04:00:32;;;;;;;2.85;2.28;;;;;;;;;;4397824;29;20197;-65
2021/12/24 04:03:01;;;;;;;2.92;2.30;;;;;;;;;;4453118;28;20046;-65
2021/12/24 04:05:18;;;;;;;3.30;2.20;;;;;;;;;;4466419;28;20054;-66
2021/12/24 04:07:47;;;;;;;2.45;1.95;;;;;;;;;;4471127;28;20244;-65
2021/12/24 04:10:40;;;;;;;2.58;2.22;;;;;;;;;;4440702;28;20669;-65
2021/12/24 04:13:14;;;;;;;3.20;2.50;;;;;;;;;;4453503;28;20103;-66
2021/12/24 04:15:24;;;;;;;2.92;2.13;;;;;;;;;;4471559;28;20051;-66
2021/12/24 04:17:38;;;;;;;3.27;2.40;;;;;;;;;;4486272;28;20049;-65
2021/12/24 04:24:52;;;;;;;3.20;2.67;;;;;;;;;;4486420;28;20191;-65
2021/12/24 04:27:02;;;;;;;2.80;2.30;;;;;;;;;;4453247;28;21187;-66
2021/12/24 04:29:14;;;;;;;2.90;2.13;;;;;;;;;;4468478;28;20034;-66
2021/12/24 04:31:38;;;;;;;3.08;2.40;;;;;;;;;;4437864;28;20028;-66
2021/12/24 04:34:26;;;;;;;2.85;2.28;;;;;;;;;;4439380;28;20078;-67
2021/12/24 04:37:34;;;;;;;2.63;2.05;;;;;;;;;;4485352;28;20041;-69
2021/12/24 04:51:39;;;;;;;3.10;2.40;;;;;;;;;;4459231;28;20034;-70
2021/12/24 05:02:08;;;;;;;2.70;2.15;;;;;;;;;;4453435;28;20126;-68
2021/12/24 05:04:08;;;;;;;2.97;2.15;;;;;;;;;;4442831;28;20682;-67
2021/12/24 05:08:40;;;;;;;2.85;2.20;;;;;;;;;;4485185;28;20030;-68
2021/12/24 05:10:52;;;;;;;2.78;2.20;;;;;;;;;;4451087;28;20111;-66
2021/12/24 05:13:05;;;;;;;3.60;2.80;;;;;;;;;;4452072;28;20036;-66
2021/12/24 05:15:27;;;;;;;2.95;2.40;;;;;;;;;;4483822;28;20042;-65
2021/12/24 05:23:02;;;;;;;3.60;3.00;;;;;;;;;;4484197;28;20814;-66
2021/12/24 05:25:12;;;;;;;3.42;2.88;;;;;;;;;;4468686;28;20039;-66
2021/12/24 05:27:23;;;;;;;4.17;3.20;;;;;;;;;;4469635;28;20035;-65
2021/12/24 05:29:33;;;;;;;4.30;3.07;;;;;;;;;;4452590;28;20083;-67
2021/12/24 05:31:44;;;;;;;4.03;3.17;;;;;;;;;;4469622;28;20508;-66
2021/12/24 05:33:55;;;;;;;4.60;3.47;;;;;;;;;;4452524;28;20102;-66
2021/12/24 05:36:06;;;;;;;3.92;3.03;;;;;;;;;;4470130;28;20657;-71
2021/12/24 05:38:18;;;;;;;3.80;2.97;;;;;;;;;;4484801;28;20071;-73
2021/12/24 05:40:29;;;;;;;3.70;3.17;;;;;;;;;;4484403;28;20061;-72
2021/12/24 05:42:40;;;;;;;4.43;3.40;;;;;;;;;;4452376;28;20054;-72
2021/12/24 05:44:51;;;;;;;4.97;3.50;;;;;;;;;;4484282;28;20034;-72
2021/12/24 05:47:21;;;;;;;4.53;3.25;;;;;;;;;;4469880;28;20085;-70
2021/12/24 05:49:34;;;;;;;5.40;3.75;;;;;;;;;;4452033;28;20770;-72
2021/12/24 05:52:04;;;;;;;4.55;3.65;;;;;;;;;;4469817;28;20594;-72
2021/12/24 05:54:21;;;;;;;4.70;3.75;;;;;;;;;;4484914;28;20046;-71
2021/12/24 05:56:32;;;;;;;6.23;4.33;;;;;;;;;;4451345;28;20034;-71
2021/12/24 05:58:54;;;;;;;5.50;4.10;;;;;;;;;;4485230;28;20113;-71
2021/12/24 06:01:05;;;;;;;6.00;4.30;;;;;;;;;;4484942;28;20056;-67
2021/12/24 06:03:23;;;;;;;7.75;4.93;;;;;;;;;;4466880;28;20102;-68
2021/12/24 06:05:37;;;;;;;5.10;4.00;;;;;;;;;;4451553;28;20133;-67
2021/12/24 06:07:48;;;;;;;7.20;5.00;;;;;;;;;;4469377;28;20621;-67
2021/12/24 06:09:58;;;;;;;7.93;5.17;;;;;;;;;;4469530;28;20034;-67
2021/12/24 06:12:09;;;;;;;6.70;4.87;;;;;;;;;;4469502;28;20403;-68
2021/12/24 06:14:19;;;;;;;7.13;4.90;;;;;;;;;;4469286;28;20054;-69
2021/12/24 06:16:30;;;;;;;8.03;4.97;;;;;;;;;;4470105;28;20135;-70
2021/12/24 06:18:41;;;;;;;7.43;5.07;;;;;;;;;;4469521;28;20035;-70
2021/12/24 06:20:53;;;;;;;7.45;5.25;;;;;;;;;;4452582;28;20166;-69
2021/12/24 06:23:07;;;;;;;;;;;;;;;;;;4470141;28;20126;-69
2021/12/24 06:25:18;;;;;;;7.43;5.53;;;;;;;;;;4469089;28;19956;-69
2021/12/24 06:27:30;;;;;;;7.43;5.55;;;;;;;;;;4451496;28;20297;-69
2021/12/24 06:29:40;;;;;;;;;;;;;;;;;;4470158;28;20902;-69
2021/12/24 06:31:51;;;;;;;8.18;5.75;;;;;;;;;;4484614;28;20083;-69
2021/12/24 06:34:01;;;;;;;7.85;5.72;;;;;;;;;;4484122;28;20065;-69
2021/12/24 06:36:12;;;;;;;8.47;6.30;;;;;;;;;;4470432;28;20061;-69
2021/12/24 06:38:23;;;;;;;6.27;4.53;;;;;;;;;;4469819;28;20049;-69
2021/12/24 06:40:34;;;;;;;4.95;3.60;;;;;;;;;;4484277;28;20165;-66
2021/12/24 06:42:44;;;;;;;7.97;6.37;;;;;;;;;;4467597;28;20104;-66
2021/12/24 06:44:55;;;;;;;6.97;5.10;;;;;;;;;;4451640;28;20173;-69
2021/12/24 06:47:05;;;;;;;7.80;5.13;;;;;;;;;;4450902;28;20023;-66
2021/12/24 06:49:17;;;;;;;5.73;4.23;;;;;;;;;;4484177;28;20034;-66
2021/12/24 06:51:27;;;;;;;4.38;2.83;;;;;;;;;;4469830;28;20164;-67
2021/12/24 06:53:38;;;;;;;3.40;2.60;;;;;;;;;;4452388;28;20146;-66
2021/12/24 06:55:49;;;;;;;7.78;5.43;;;;;;;;;;4466820;28;20038;-67
2021/12/24 06:58:00;;;;;;;6.87;5.40;;;;;;;;;;4450637;28;20050;-68
2021/12/24 07:00:16;;;;;;;8.67;5.57;;;;;;;;;;4468100;28;20038;-69
2021/12/24 07:02:27;;;;;;;7.32;4.85;;;;;;;;;;4483548;28;20590;-69
2021/12/24 07:04:37;;;;;;;6.43;4.93;;;;;;;;;;4468833;28;20556;-69
2021/12/24 07:06:48;;;;;;;7.40;5.00;;;;;;;;;;4467984;28;35899;-69
2021/12/24 07:08:58;;;;;;;7.23;5.17;;;;;;;;;;4468144;28;20039;-70
2021/12/24 07:11:08;;;;;;;7.10;5.30;;;;;;;;;;4483046;28;20117;-69
2021/12/24 07:13:19;;;;;;;7.47;5.10;;;;;;;;;;4468437;28;20050;-69
2021/12/24 07:15:29;;;;;;;7.77;5.33;;;;;;;;;;4483431;28;20037;-70
2021/12/24 07:17:40;;;;;;;8.80;6.37;;;;;;;;;;4467245;28;20566;-70
2021/12/24 07:19:50;;;;;;;7.57;5.33;;;;;;;;;;4467955;28;20050;-70
2021/12/24 07:22:02;;;;;;;7.10;4.83;;;;;;;;;;4468288;28;20045;-69
2021/12/24 07:24:12;;;;;;;;;;;;;;;;;;4453189;28;20054;-67
2021/12/24 07:26:23;;;;;;;6.72;5.13;;;;;;;;;;4449591;28;19923;-67
2021/12/24 07:28:33;;;;;;;7.50;5.37;;;;;;;;;;4482636;28;20034;-66
2021/12/24 07:30:44;;;;;;;7.37;5.37;;;;;;;;;;4482191;28;20057;-66
2021/12/24 07:32:55;;;;;;;7.00;5.22;;;;;;;;;;4450260;28;20239;-65
2021/12/24 07:35:07;;;;;;;7.47;5.47;;;;;;;;;;4450464;28;20162;-66
2021/12/24 07:37:17;;;;;;;;;;;;;;;;;;4468524;28;20047;-66
2021/12/24 07:39:27;;;;;;;8.52;5.68;;;;;;;;;;4467117;28;19914;-66
2021/12/24 07:41:38;;;;;;;6.97;5.47;;;;;;;;;;4469633;28;20031;-69
2021/12/24 07:43:52;;;;;;;7.65;5.68;;;;;;;;;;4452996;28;20050;-69
2021/12/24 07:46:02;;;;;;;8.98;5.88;;;;;;;;;;4469504;28;20046;-70
2021/12/24 07:48:15;;;;;;;9.37;6.30;;;;;;;;;;4468865;28;20035;-69
2021/12/24 07:52:38;;;;;;;8.90;6.20;;;;;;;;;;4468017;28;20484;-70
2021/12/24 07:54:50;;;;;;;8.40;5.63;;;;;;;;;;4470655;28;20238;-70
2021/12/24 07:57:01;;;;;;;8.43;5.68;;;;;;;;;;4469828;28;20821;-70
2021/12/24 07:59:14;;;;;;;8.50;5.70;;;;;;;;;;4467781;28;20139;-70
2021/12/24 08:01:25;;;;;;;6.97;5.50;;;;;;;;;;4484958;28;20332;-70
2021/12/24 08:03:36;;;;;;;;;;;;;;;;;;4451994;28;20042;-70
2021/12/24 08:05:48;;;;;;;7.28;5.75;;;;;;;;;;4470738;28;19921;-70
2021/12/24 08:08:00;;;;;;;7.93;5.78;;;;;;;;;;4470589;28;20050;-70
2021/12/24 08:10:10;;;;;;;7.90;5.65;;;;;;;;;;4469614;28;20579;-70
2021/12/24 08:12:21;;;;;;;8.93;5.67;;;;;;;;;;4451555;28;20039;-70
2021/12/24 08:14:32;;;;;;;8.60;6.13;;;;;;;;;;4468685;28;20043;-70
2021/12/24 08:16:44;;;;;;;7.63;6.30;;;;;;;;;;4452877;28;20023;-70
2021/12/24 08:18:55;;;;;;;8.90;5.70;;;;;;;;;;4470722;28;20630;-70
2021/12/24 08:21:05;;;;;;;8.25;6.22;;;;;;;;;;4468048;28;20039;-70
2021/12/24 08:23:16;;;;;;;8.10;5.57;;;;;;;;;;4470433;28;20479;-70
2021/12/24 08:25:26;;;;;;;7.77;5.60;;;;;;;;;;4470425;28;20849;-70
2021/12/24 08:27:40;;;;;;;7.70;5.77;;;;;;;;;;4485902;28;20030;-70
2021/12/24 08:29:51;;;;;;;7.90;5.07;;;;;;;;;;4454969;28;20073;-70
2021/12/24 08:32:03;;;;;;;7.85;5.78;;;;;;;;;;4469198;28;20038;-70
2021/12/24 08:34:16;;;;;;;7.25;5.20;;;;;;;;;;4470518;28;20038;-70
2021/12/24 08:36:27;;;;;;;7.70;5.00;;;;;;;;;;4484688;28;20034;-70
2021/12/24 08:38:39;;;;;;;6.80;4.80;;;;;;;;;;4469709;28;20081;-70
2021/12/24 08:40:49;;;;;;;7.30;5.15;;;;;;;;;;4469025;28;20105;-70
2021/12/24 08:43:00;;;;;;;8.20;5.17;;;;;;;;;;4450233;28;20330;-70
2021/12/24 08:45:11;;;;;;;7.38;5.68;;;;;;;;;;4470288;28;20038;-71
2021/12/24 08:47:22;;;;;;;7.50;6.00;;;;;;;;;;4456086;28;20075;-70
2021/12/24 08:49:32;;;;;;;7.53;5.10;;;;;;;;;;4469970;28;20903;-70
2021/12/24 08:51:42;;;;;;;6.70;5.00;;;;;;;;;;4469643;28;20039;-70
2021/12/24 08:53:53;;;;;;;6.40;4.73;;;;;;;;;;4469472;28;20082;-70
2021/12/24 08:56:04;;;;;;;6.40;4.80;;;;;;;;;;4469946;28;20106;-70
2021/12/24 08:58:15;;;;;;;7.10;5.80;;;;;;;;;;4469730;28;20043;-69
2021/12/24 09:00:26;;;;;;;7.32;5.20;;;;;;;;;;4484322;28;20521;-70
2021/12/24 09:02:39;;;;;;;8.70;5.27;;;;;;;;;;4469578;28;20035;-70
2021/12/24 09:04:50;;;;;;;8.48;4.93;;;;;;;;;;4451998;28;20035;-70
2021/12/24 09:07:00;;;;;;;7.50;5.23;;;;;;;;;;4470062;28;20537;-69
2021/12/24 09:09:11;;;;;;;8.80;5.30;;;;;;;;;;4469973;28;20038;-68
2021/12/24 09:11:21;;;;;;;7.77;5.50;;;;;;;;;;4469950;28;20119;-68
2021/12/24 09:13:32;;;;;;;7.50;5.10;;;;;;;;;;4468305;28;26203;-68
2021/12/24 09:15:43;;;;;;;6.93;5.03;;;;;;;;;;4468920;28;20039;-69
2021/12/24 09:17:53;;;;;;;7.88;5.65;;;;;;;;;;4468979;28;20521;-69
2021/12/24 09:20:05;;;;;;;8.43;5.50;;;;;;;;;;4466306;28;20357;-70
2021/12/24 09:22:21;;;;;;;;;;;;;;;;;;4470119;28;20697;-69
2021/12/24 09:24:31;;;;;;;7.72;5.50;;;;;;;;;;4469805;28;20024;-70
2021/12/24 09:26:42;;;;;;;8.27;5.70;;;;;;;;;;4451402;28;20697;-70
2021/12/24 09:28:52;;;;;;;8.80;6.20;;;;;;;;;;4469355;28;20050;-70
2021/12/24 09:31:03;;;;;;;9.63;6.50;;;;;;;;;;4449492;28;20046;-70
2021/12/24 09:33:13;;;;;;;9.07;6.27;;;;;;;;;;4453954;28;20028;-70
2021/12/24 09:35:26;;;;;;;8.00;5.80;;;;;;;;;;4451516;28;20043;-71
2021/12/24 09:37:38;;;;;;;9.13;6.53;;;;;;;;;;4468655;28;20545;-70
2021/12/24 09:39:48;;;;;;;9.02;6.68;;;;;;;;;;4469369;28;20140;-70
2021/12/24 09:41:59;;;;;;;9.07;6.43;;;;;;;;;;4467476;28;20046;-70
2021/12/24 09:44:10;;;;;;;8.68;6.00;;;;;;;;;;4469389;28;20491;-68
2021/12/24 09:46:21;;;;;;;9.48;6.50;;;;;;;;;;4468590;28;20038;-67
2021/12/24 09:48:31;;;;;;;7.73;5.40;;;;;;;;;;4469473;28;20054;-67
2021/12/24 09:50:42;;;;;;;8.80;6.70;;;;;;;;;;4469147;28;20043;-67
2021/12/24 09:52:52;;;;;;;10.60;6.63;;;;;;;;;;4469160;28;20042;-67
2021/12/24 09:55:08;;;;;;;9.03;6.30;;;;;;;;;;4468686;28;20057;-67
2021/12/24 09:57:19;;;;;;;9.27;6.82;;;;;;;;;;4465611;28;20050;-68
2021/12/24 09:59:30;;;;;;;9.70;6.40;;;;;;;;;;4468108;28;20030;-68
2021/12/24 10:01:43;;;;;;;8.87;6.03;;;;;;;;;;4467082;28;20035;-68
2021/12/24 10:04:08;;;;;;;9.27;6.40;;;;;;;;;;4466814;28;20035;-68
2021/12/24 10:06:21;;;;;;;9.18;6.72;;;;;;;;;;4468309;28;20038;-68
2021/12/24 10:08:32;;;;;;;8.45;6.03;;;;;;;;;;4466719;28;20027;-68
2021/12/24 10:10:45;;;;;;;8.55;5.45;;;;;;;;;;4481100;28;20041;-68
2021/12/24 10:12:58;;;;;;;8.95;5.75;;;;;;;;;;4466998;28;20092;-68
2021/12/24 10:15:08;;;;;;;8.10;5.88;;;;;;;;;;4466928;28;20648;-68
2021/12/24 10:17:21;;;;;;;9.03;6.60;;;;;;;;;;4468319;28;20225;-68
2021/12/24 10:19:46;;;;;;;8.70;5.60;;;;;;;;;;4482126;28;20061;-68
2021/12/24 10:21:59;;;;;;;8.52;5.90;;;;;;;;;;4451764;28;20134;-68
2021/12/24 10:24:19;;;;;;;8.65;5.60;;;;;;;;;;4437116;28;20871;-68
2021/12/24 10:26:33;;;;;;;7.55;4.88;;;;;;;;;;4466759;28;20047;-68
2021/12/24 10:28:53;;;;;;;9.32;5.70;;;;;;;;;;4447710;28;20038;-68
2021/12/24 10:31:03;;;;;;;8.60;5.63;;;;;;;;;;4447603;28;20126;-68
2021/12/24 10:33:13;;;;;;;7.47;5.10;;;;;;;;;;4466595;28;20038;-68
2021/12/24 10:35:29;;;;;;;7.70;5.20;;;;;;;;;;4481799;28;20037;-68
2021/12/24 10:37:39;;;;;;;7.15;4.93;;;;;;;;;;4467162;28;20066;-67
2021/12/24 10:39:58;;;;;;;7.20;4.80;;;;;;;;;;4465217;28;20113;-68
2021/12/24 10:42:13;;;;;;;7.72;5.10;;;;;;;;;;4466564;28;20141;-68
2021/12/24 10:44:28;;;;;;;7.93;5.32;;;;;;;;;;4481792;28;20046;-68
2021/12/24 10:46:39;;;;;;;7.38;4.82;;;;;;;;;;4452551;28;20118;-68
2021/12/24 10:49:03;;;;;;;6.63;4.70;;;;;;;;;;4449616;28;20091;-68
2021/12/24 10:51:41;;;;;;;8.95;5.22;;;;;;;;;;4449976;28;20046;-68
2021/12/24 10:54:06;;;;;;;6.25;4.80;;;;;;;;;;4466653;28;20574;-68
2021/12/24 10:56:26;;;;;;;9.50;4.88;;;;;;;;;;4466671;28;20590;-67
2021/12/24 10:58:43;;;;;;;6.97;4.80;;;;;;;;;;4449656;28;20045;-67
2021/12/24 11:00:59;;;;;;;6.97;4.70;;;;;;;;;;4468044;28;20041;-68
2021/12/24 11:03:17;;;;;;;7.45;5.07;;;;;;;;;;4481675;28;21054;-68
2021/12/24 11:05:38;;;;;;;6.47;5.00;;;;;;;;;;4467205;28;20035;-68
2021/12/24 11:07:48;;;;;;;8.25;4.85;;;;;;;;;;4481197;28;20148;-68
2021/12/24 11:10:12;;;;;;;6.07;4.60;;;;;;;;;;4465657;28;20043;-65
2021/12/24 11:12:36;;;;;;;6.82;4.90;;;;;;;;;;4464985;28;20035;-66
2021/12/24 11:14:47;;;;;;;8.48;5.47;;;;;;;;;;4467000;28;20042;-70
2021/12/24 11:16:58;;;;;;;6.77;4.93;;;;;;;;;;4449597;28;20031;-68
2021/12/24 11:19:08;;;;;;;6.75;4.90;;;;;;;;;;4466126;28;20030;-69
2021/12/24 11:21:21;;;;;;;7.17;4.70;;;;;;;;;;4449623;28;20055;-66
2021/12/24 11:23:36;;;;;;;7.03;4.90;;;;;;;;;;4448668;28;20031;-68
2021/12/24 11:25:50;;;;;;;7.32;5.05;;;;;;;;;;4480827;28;20034;-70
2021/12/24 11:28:02;;;;;;;6.97;4.53;;;;;;;;;;4466628;28;20070;-69
2021/12/24 11:30:14;;;;;;;9.38;5.75;;;;;;;;;;4432721;28;20086;-69
2021/12/24 11:32:25;;;;;;;4.65;2.35;;;;;;;;;;4467684;28;20499;-69
2021/12/24 11:34:35;;;;;;;9.03;5.47;;;;;;;;;;4482277;28;20046;-69
2021/12/24 11:36:46;;;;;;;7.60;4.63;;;;;;;;;;4449478;28;20039;-68
2021/12/24 11:38:59;;;;;;;8.50;6.13;;;;;;;;;;4469191;28;20043;-66
2021/12/24 11:41:14;;;;;;;10.95;9.27;;;;;;;;;;4467123;28;20043;-69
2021/12/24 11:43:28;;;;;;;6.78;4.15;;;;;;;;;;4482709;28;20045;-59
2021/12/24 11:45:38;;;;;;;6.47;4.15;;;;;;;;;;4447946;28;20046;-59
2021/12/24 11:47:50;;;;;;;7.77;4.70;;;;;;;;;;4480717;28;20033;-59
2021/12/24 11:50:01;;;;;;;6.85;4.32;;;;;;;;;;4466180;28;20617;-58
2021/12/24 11:52:12;;;;;;;7.72;4.18;;;;;;;;;;4466777;28;20530;-57
2021/12/24 11:54:22;;;;;;;6.97;4.30;;;;;;;;;;4482121;28;20339;-58
2021/12/24 11:56:45;;;;;;;6.53;4.33;;;;;;;;;;4466940;28;20105;-57
2021/12/24 11:58:57;;;;;;;7.93;4.65;;;;;;;;;;4482336;28;20041;-58
2021/12/24 12:01:08;;;;;;;9.07;4.57;;;;;;;;;;4466380;28;20042;-59
2021/12/24 12:03:37;;;;;;;7.17;4.37;;;;;;;;;;4466788;28;20071;-58
2021/12/24 12:05:48;;;;;;;7.45;4.72;;;;;;;;;;4481573;28;20137;-58
2021/12/24 12:08:27;;;;;;;7.67;4.93;;;;;;;;;;4466824;28;22751;-58
2021/12/24 12:10:50;;;;;;;8.68;5.13;;;;;;;;;;4466829;28;20038;-58
2021/12/24 12:13:01;;;;;;;8.30;4.75;;;;;;;;;;4467020;28;20035;-58
2021/12/24 12:15:38;;;;;;;7.90;4.70;;;;;;;;;;4482300;28;20820;-58
2021/12/24 12:17:50;;;;;;;7.05;4.57;;;;;;;;;;4459282;28;20047;-58
2021/12/24 12:20:01;;;;;;;8.65;5.43;;;;;;;;;;4480270;28;20125;-59
2021/12/24 12:25:02;;;;;;;6.97;4.30;;;;;;;;;;4481916;28;20985;-58
2021/12/24 12:27:35;;;;;;;6.00;4.38;;;;;;;;;;4470083;28;20038;-58
2021/12/24 12:29:46;;;;;;;6.63;4.38;;;;;;;;;;4469141;28;20046;-59
2021/12/24 12:32:04;;;;;;;6.47;4.60;;;;;;;;;;4470721;28;20352;-58
2021/12/24 12:34:36;;;;;;;8.85;5.15;;;;;;;;;;4484733;28;20121;-58
2021/12/24 12:36:50;;;;;;;8.40;5.13;;;;;;;;;;4468669;28;21006;-58
2021/12/24 12:39:27;;;;;;;6.78;4.45;;;;;;;;;;4451737;28;20111;-58
2021/12/24 12:41:48;;;;;;;8.23;5.20;;;;;;;;;;4451929;28;20050;-58
2021/12/24 12:44:01;;;;;;;6.53;4.43;;;;;;;;;;4469754;28;20066;-59
2021/12/24 12:46:27;;;;;;;8.48;5.38;;;;;;;;;;4451192;28;20060;-58
2021/12/24 12:48:43;;;;;;;6.85;4.10;;;;;;;;;;4483784;28;20641;-58
2021/12/24 12:50:57;;;;;;;7.93;4.97;;;;;;;;;;4469389;28;20039;-58
2021/12/24 12:53:26;;;;;;;7.13;4.47;;;;;;;;;;4470304;28;20625;-58
2021/12/24 12:55:37;;;;;;;7.03;4.72;;;;;;;;;;4469119;28;20046;-58
2021/12/24 12:57:47;;;;;;;7.80;4.47;;;;;;;;;;4468124;28;20030;-58
2021/12/24 13:00:07;;;;;;;7.30;4.30;;;;;;;;;;4450244;28;25845;-59
2021/12/24 13:02:17;;;;;;;6.78;4.35;;;;;;;;;;4469572;28;20046;-58
2021/12/24 13:04:28;;;;;;;7.40;4.30;;;;;;;;;;4469813;28;20038;-57
2021/12/24 13:06:42;;;;;;;6.77;4.10;;;;;;;;;;4470185;28;20412;-58
2021/12/24 13:08:56;;;;;;;6.57;4.43;;;;;;;;;;4470056;28;20035;-58
2021/12/24 13:11:12;;;;;;;6.05;3.97;;;;;;;;;;4451448;28;20035;-57
2021/12/24 13:13:23;;;;;;;5.68;4.03;;;;;;;;;;4451641;28;20039;-57
2021/12/24 13:15:44;;;;;;;5.33;3.70;;;;;;;;;;4468969;28;20494;-58
2021/12/24 13:17:59;;;;;;;6.15;4.10;;;;;;;;;;4469407;28;20149;-57
2021/12/24 13:20:15;;;;;;;6.40;3.80;;;;;;;;;;4468223;28;20205;-58
2021/12/24 13:22:32;;;;;;;8.18;4.70;;;;;;;;;;4451470;28;20578;-57
2021/12/24 13:24:53;;;;;;;6.28;3.95;;;;;;;;;;4467511;28;20042;-58
2021/12/24 13:27:04;;;;;;;6.60;3.83;;;;;;;;;;4469967;28;20130;-58
2021/12/24 13:29:22;;;;;;;8.02;4.85;;;;;;;;;;4467775;28;20615;-58
2021/12/24 13:31:33;;;;;;;5.03;3.50;;;;;;;;;;4483298;28;20166;-58
2021/12/24 13:33:46;;;;;;;6.57;3.83;;;;;;;;;;4468035;28;20081;-58
2021/12/24 13:35:56;;;;;;;6.13;3.47;;;;;;;;;;4468554;28;20031;-58
2021/12/24 13:38:24;;;;;;;6.90;3.83;;;;;;;;;;4467736;28;20578;-58
2021/12/24 13:40:35;;;;;;;4.82;3.33;;;;;;;;;;4467656;28;20038;-57
2021/12/24 13:42:54;;;;;;;5.90;3.50;;;;;;;;;;4469400;28;20034;-59
2021/12/24 13:45:05;;;;;;;5.60;3.55;;;;;;;;;;4468518;28;20660;-58
2021/12/24 13:47:50;;;;;;;6.40;4.50;;;;;;;;;;4469701;28;20195;-58
2021/12/24 13:54:42;;;;;;;6.07;3.63;;;;;;;;;;4469285;28;20068;-58
2021/12/24 13:56:52;;;;;;;5.77;3.93;;;;;;;;;;4468867;28;20043;-58
2021/12/24 13:59:03;;;;;;;7.07;3.87;;;;;;;;;;4469052;28;22954;-58
2021/12/24 14:01:14;;;;;;;9.68;4.55;;;;;;;;;;4467122;28;20034;-60
2021/12/24 14:03:28;;;;;;;6.47;4.40;;;;;;;;;;4450906;28;20126;-57
2021/12/24 14:05:46;;;;;;;6.55;4.43;;;;;;;;;;4455219;28;20575;-58
2021/12/24 14:08:17;;;;;;;7.18;4.28;;;;;;;;;;4467856;28;20031;-58
2021/12/24 14:10:27;;;;;;;7.03;4.63;;;;;;;;;;4468792;28;20046;-57
2021/12/24 14:12:38;;;;;;;6.83;5.03;;;;;;;;;;4468872;28;20050;-58
2021/12/24 14:14:55;;;;;;;7.90;4.83;;;;;;;;;;4468531;28;20051;-58
2021/12/24 14:20:06;;;;;;;5.75;4.05;;;;;;;;;;4481987;28;20142;-57
2021/12/24 14:22:12;;;;;;;5.95;4.00;;;;;;;;;;4452690;28;20047;-57
2021/12/24 14:24:28;;;;;;;6.90;4.28;;;;;;;;;;4468660;28;20035;-56
2021/12/24 14:26:41;;;;;;;5.45;4.00;;;;;;;;;;4468850;28;20034;-58
2021/12/24 14:28:52;;;;;;;6.40;4.03;;;;;;;;;;4484347;28;20654;-58
2021/12/24 14:31:04;;;;;;;5.75;4.30;;;;;;;;;;4450532;28;20027;-57
2021/12/24 14:33:15;;;;;;;7.75;4.80;;;;;;;;;;4481948;28;20049;-57
2021/12/24 14:35:27;;;;;;;6.47;4.20;;;;;;;;;;4467147;28;20090;-57
2021/12/24 14:37:37;;;;;;;7.72;4.88;;;;;;;;;;4483404;28;20026;-58
2021/12/24 14:40:09;;;;;;;6.60;4.30;;;;;;;;;;4468300;28;20071;-57
2021/12/24 14:42:22;;;;;;;6.83;4.47;;;;;;;;;;4482625;28;20026;-56
2021/12/24 14:44:33;;;;;;;8.82;5.88;;;;;;;;;;4467544;28;20037;-57
2021/12/24 14:46:56;;;;;;;8.17;5.87;;;;;;;;;;4467645;28;20049;-59
2021/12/24 14:49:06;;;;;;;8.38;4.80;;;;;;;;;;4467227;28;20054;-60
2021/12/24 14:51:17;;;;;;;6.33;4.13;;;;;;;;;;4467638;28;20118;-58
2021/12/24 14:53:33;;;;;;;6.50;4.63;;;;;;;;;;4449754;28;20122;-58
2021/12/24 14:55:46;;;;;;;6.40;4.40;;;;;;;;;;4482195;28;20688;-58
2021/12/24 14:58:00;;;;;;;6.78;4.57;;;;;;;;;;4467854;28;21508;-59
2021/12/24 15:00:12;;;;;;;7.05;4.78;;;;;;;;;;4468100;28;20533;-58
2021/12/24 15:02:22;;;;;;;6.72;4.15;;;;;;;;;;4467625;28;20035;-57
2021/12/24 15:04:33;;;;;;;7.13;4.60;;;;;;;;;;4481785;28;20042;-57
2021/12/24 15:06:49;;;;;;;7.07;4.80;;;;;;;;;;4466830;28;20593;-58
2021/12/24 15:09:03;;;;;;;8.13;4.90;;;;;;;;;;4432994;28;21261;-58
2021/12/24 15:11:23;;;;;;;6.38;4.72;;;;;;;;;;4481601;28;20049;-58
2021/12/24 15:13:34;;;;;;;6.95;4.88;;;;;;;;;;4466340;28;20563;-58